sensor_id;sensor_type;location;lat;lon;timestamp;temperature;humidity
8114;DHT22;4099;52.684;9.918;2023-02-28T00:04:49;-3.20;99.90
8114;DHT22;4099;52.684;9.918;2023-02-28T00:09:54;-3.10;99.90
8114;DHT22;4099;52.684;9.918;2023-02-28T00:14:56;-3.40;99.90
8114;DHT22;4099;52.684;9.918;2023-02-28T00:19:59;-3.50;99.90
8114;DHT22;4099;52.684;9.918;2023-02-28T00:25:12;-3.30;99.90
8114;DHT22;4099;52.684;9.918;2023-02-28T00:30:16;-3.60;99.90
8114;DHT22;4099;52.684;9.918;2023-02-28T00:35:20;-3.80;99.90
8114;DHT22;4099;52.684;9.918;2023-02-28T00:40:23;-4.00;99.90
8114;DHT22;4099;52.684;9.918;2023-02-28T00:45:25;-4.00;99.90
8114;DHT22;4099;52.684;9.918;2023-02-28T00:50:29;-4.00;99.90
8114;DHT22;4099;52.684;9.918;2023-02-28T00:55:31;-4.20;99.90
8114;DHT22;4099;52.684;9.918;2023-02-28T01:00:34;-4.40;99.90
8114;DHT22;4099;52.684;9.918;2023-02-28T01:05:38;-4.40;99.90
8114;DHT22;4099;52.684;9.918;2023-02-28T01:10:42;-4.30;99.90
8114;DHT22;4099;52.684;9.918;2023-02-28T01:15:49;-4.20;99.90
8114;DHT22;4099;52.684;9.918;2023-02-28T01:20:53;-4.40;99.90
8114;DHT22;4099;52.684;9.918;2023-02-28T01:25:55;-4.50;99.90
8114;DHT22;4099;52.684;9.918;2023-02-28T01:30:57;-4.60;99.90
8114;DHT22;4099;52.684;9.918;2023-02-28T01:36:02;-4.60;99.90
8114;DHT22;4099;52.684;9.918;2023-02-28T01:41:04;-4.60;99.90
8114;DHT22;4099;52.684;9.918;2023-02-28T01:46:08;-4.50;99.90
8114;DHT22;4099;52.684;9.918;2023-02-28T01:51:15;-4.30;99.90
8114;DHT22;4099;52.684;9.918;2023-02-28T01:56:22;-4.00;99.90
8114;DHT22;4099;52.684;9.918;2023-02-28T02:01:27;-4.30;99.90
8114;DHT22;4099;52.684;9.918;2023-02-28T02:06:37;-4.50;99.90
8114;DHT22;4099;52.684;9.918;2023-02-28T02:11:43;-4.70;99.90
8114;DHT22;4099;52.684;9.918;2023-02-28T02:17:02;-4.80;99.90
8114;DHT22;4099;52.684;9.918;2023-02-28T02:22:20;-4.70;99.90
8114;DHT22;4099;52.684;9.918;2023-02-28T02:27:46;-4.60;99.90
8114;DHT22;4099;52.684;9.918;2023-02-28T02:33:10;-4.50;99.90
8114;DHT22;4099;52.684;9.918;2023-02-28T02:38:29;-4.70;99.90
8114;DHT22;4099;52.684;9.918;2023-02-28T02:43:35;-5.00;99.90
8114;DHT22;4099;52.684;9.918;2023-02-28T02:48:40;-4.90;99.90
8114;DHT22;4099;52.684;9.918;2023-02-28T02:53:48;-5.10;99.90
8114;DHT22;4099;52.684;9.918;2023-02-28T02:58:53;-5.20;99.90
8114;DHT22;4099;52.684;9.918;2023-02-28T03:03:57;-5.40;99.90
8114;DHT22;4099;52.684;9.918;2023-02-28T03:09:02;-5.30;99.90
8114;DHT22;4099;52.684;9.918;2023-02-28T03:14:13;-5.00;99.90
8114;DHT22;4099;52.684;9.918;2023-02-28T03:19:31;-5.10;99.90
8114;DHT22;4099;52.684;9.918;2023-02-28T03:24:45;-5.40;99.90
8114;DHT22;4099;52.684;9.918;2023-02-28T03:29:53;-5.40;99.90
8114;DHT22;4099;52.684;9.918;2023-02-28T03:35:01;-5.50;99.90
8114;DHT22;4099;52.684;9.918;2023-02-28T03:40:11;-5.10;99.90
8114;DHT22;4099;52.684;9.918;2023-02-28T03:45:18;-4.90;99.90
8114;DHT22;4099;52.684;9.918;2023-02-28T03:50:25;-5.20;99.90
8114;DHT22;4099;52.684;9.918;2023-02-28T03:55:34;-5.10;99.90
8114;DHT22;4099;52.684;9.918;2023-02-28T04:00:43;-5.40;99.90
8114;DHT22;4099;52.684;9.918;2023-02-28T04:05:50;-5.10;99.90
8114;DHT22;4099;52.684;9.918;2023-02-28T04:11:00;-5.20;99.90
8114;DHT22;4099;52.684;9.918;2023-02-28T04:16:06;-5.40;99.90
8114;DHT22;4099;52.684;9.918;2023-02-28T04:21:12;-5.50;99.90
8114;DHT22;4099;52.684;9.918;2023-02-28T04:26:15;-5.70;99.90
8114;DHT22;4099;52.684;9.918;2023-02-28T04:31:17;-5.70;99.90
8114;DHT22;4099;52.684;9.918;2023-02-28T04:36:19;-5.90;99.90
8114;DHT22;4099;52.684;9.918;2023-02-28T04:41:24;-5.70;99.90
8114;DHT22;4099;52.684;9.918;2023-02-28T04:46:26;-5.70;99.90
8114;DHT22;4099;52.684;9.918;2023-02-28T04:51:29;-5.80;99.90
8114;DHT22;4099;52.684;9.918;2023-02-28T04:56:33;-5.80;99.90
8114;DHT22;4099;52.684;9.918;2023-02-28T05:01:34;-6.00;99.90
8114;DHT22;4099;52.684;9.918;2023-02-28T05:06:36;-6.20;99.90
8114;DHT22;4099;52.684;9.918;2023-02-28T05:11:40;-6.50;99.90
8114;DHT22;4099;52.684;9.918;2023-02-28T05:16:43;-6.40;99.90
8114;DHT22;4099;52.684;9.918;2023-02-28T05:21:51;-6.40;99.90
8114;DHT22;4099;52.684;9.918;2023-02-28T05:26:55;-6.40;99.90
8114;DHT22;4099;52.684;9.918;2023-02-28T05:31:58;-6.30;99.90
8114;DHT22;4099;52.684;9.918;2023-02-28T05:36:59;-6.50;99.90
8114;DHT22;4099;52.684;9.918;2023-02-28T05:42:03;-6.50;99.90
8114;DHT22;4099;52.684;9.918;2023-02-28T05:47:05;-6.50;99.90
8114;DHT22;4099;52.684;9.918;2023-02-28T05:52:07;-6.30;99.90
8114;DHT22;4099;52.684;9.918;2023-02-28T05:57:11;-5.80;99.90
8114;DHT22;4099;52.684;9.918;2023-02-28T06:02:14;-6.20;99.90
8114;DHT22;4099;52.684;9.918;2023-02-28T06:07:16;-6.40;99.90
8114;DHT22;4099;52.684;9.918;2023-02-28T06:12:20;-6.50;99.90
8114;DHT22;4099;52.684;9.918;2023-02-28T06:17:22;-6.60;99.90
8114;DHT22;4099;52.684;9.918;2023-02-28T06:22:25;-6.60;99.90
8114;DHT22;4099;52.684;9.918;2023-02-28T06:27:29;-6.40;99.90
8114;DHT22;4099;52.684;9.918;2023-02-28T06:32:31;-6.30;99.90
8114;DHT22;4099;52.684;9.918;2023-02-28T06:37:34;-6.30;99.90
8114;DHT22;4099;52.684;9.918;2023-02-28T06:42:37;-6.20;99.90
8114;DHT22;4099;52.684;9.918;2023-02-28T06:47:40;-6.20;99.90
8114;DHT22;4099;52.684;9.918;2023-02-28T06:52:42;-6.20;99.90
8114;DHT22;4099;52.684;9.918;2023-02-28T06:57:46;-6.20;99.90
8114;DHT22;4099;52.684;9.918;2023-02-28T07:02:48;-6.20;99.90
8114;DHT22;4099;52.684;9.918;2023-02-28T07:07:50;-6.10;99.90
8114;DHT22;4099;52.684;9.918;2023-02-28T07:12:54;-6.00;99.90
8114;DHT22;4099;52.684;9.918;2023-02-28T07:17:57;-5.90;99.90
8114;DHT22;4099;52.684;9.918;2023-02-28T07:22:59;-5.70;99.90
8114;DHT22;4099;52.684;9.918;2023-02-28T07:28:03;-5.60;99.90
8114;DHT22;4099;52.684;9.918;2023-02-28T07:33:05;-5.40;99.90
8114;DHT22;4099;52.684;9.918;2023-02-28T07:38:08;-5.20;99.90
8114;DHT22;4099;52.684;9.918;2023-02-28T07:43:13;-5.00;99.90
8114;DHT22;4099;52.684;9.918;2023-02-28T07:48:17;-4.70;99.90
8114;DHT22;4099;52.684;9.918;2023-02-28T07:53:19;-4.40;99.90
8114;DHT22;4099;52.684;9.918;2023-02-28T07:58:23;-4.10;99.90
8114;DHT22;4099;52.684;9.918;2023-02-28T08:03:25;-3.70;99.90
8114;DHT22;4099;52.684;9.918;2023-02-28T08:08:28;-3.40;99.90
8114;DHT22;4099;52.684;9.918;2023-02-28T08:13:33;-3.00;99.90
8114;DHT22;4099;52.684;9.918;2023-02-28T08:18:35;-2.50;99.90
8114;DHT22;4099;52.684;9.918;2023-02-28T08:23:37;-2.00;99.90
8114;DHT22;4099;52.684;9.918;2023-02-28T08:28:41;-1.60;99.90
8114;DHT22;4099;52.684;9.918;2023-02-28T08:33:43;-1.20;99.90
8114;DHT22;4099;52.684;9.918;2023-02-28T08:38:46;-0.70;99.90
8114;DHT22;4099;52.684;9.918;2023-02-28T08:43:49;-0.30;99.90
8114;DHT22;4099;52.684;9.918;2023-02-28T08:48:52;0.20;99.90
8114;DHT22;4099;52.684;9.918;2023-02-28T08:53:55;0.50;99.90
8114;DHT22;4099;52.684;9.918;2023-02-28T08:59:01;0.80;99.90
8114;DHT22;4099;52.684;9.918;2023-02-28T09:04:04;1.20;99.90
8114;DHT22;4099;52.684;9.918;2023-02-28T09:09:09;1.60;99.90
8114;DHT22;4099;52.684;9.918;2023-02-28T09:14:12;2.10;99.90
8114;DHT22;4099;52.684;9.918;2023-02-28T09:19:14;2.60;99.90
8114;DHT22;4099;52.684;9.918;2023-02-28T09:24:16;2.90;99.90
8114;DHT22;4099;52.684;9.918;2023-02-28T09:29:20;3.20;99.90
8114;DHT22;4099;52.684;9.918;2023-02-28T09:34:23;3.30;99.90
8114;DHT22;4099;52.684;9.918;2023-02-28T09:39:25;3.60;99.90
8114;DHT22;4099;52.684;9.918;2023-02-28T09:44:36;3.80;99.90
8114;DHT22;4099;52.684;9.918;2023-02-28T09:49:40;3.90;99.90
8114;DHT22;4099;52.684;9.918;2023-02-28T09:54:43;4.20;99.90
8114;DHT22;4099;52.684;9.918;2023-02-28T10:00:02;4.30;99.90
8114;DHT22;4099;52.684;9.918;2023-02-28T10:05:14;4.50;99.90
8114;DHT22;4099;52.684;9.918;2023-02-28T10:10:26;4.30;98.00
8114;DHT22;4099;52.684;9.918;2023-02-28T10:15:32;4.40;98.30
8114;DHT22;4099;52.684;9.918;2023-02-28T10:20:37;4.70;98.70
8114;DHT22;4099;52.684;9.918;2023-02-28T10:25:40;5.10;98.50
8114;DHT22;4099;52.684;9.918;2023-02-28T10:30:51;5.30;97.90
8114;DHT22;4099;52.684;9.918;2023-02-28T10:35:54;5.20;95.90
8114;DHT22;4099;52.684;9.918;2023-02-28T10:41:06;5.00;94.60
8114;DHT22;4099;52.684;9.918;2023-02-28T10:46:15;5.00;95.60
8114;DHT22;4099;52.684;9.918;2023-02-28T10:51:34;5.20;95.00
8114;DHT22;4099;52.684;9.918;2023-02-28T10:56:37;5.20;94.40
8114;DHT22;4099;52.684;9.918;2023-02-28T11:01:42;5.10;94.50
8114;DHT22;4099;52.684;9.918;2023-02-28T11:06:46;4.90;94.80
8114;DHT22;4099;52.684;9.918;2023-02-28T11:11:48;4.60;95.30
8114;DHT22;4099;52.684;9.918;2023-02-28T11:16:54;4.90;96.40
8114;DHT22;4099;52.684;9.918;2023-02-28T11:22:00;5.20;94.30
8114;DHT22;4099;52.684;9.918;2023-02-28T11:27:03;5.70;93.40
8114;DHT22;4099;52.684;9.918;2023-02-28T11:32:12;5.70;93.00
8114;DHT22;4099;52.684;9.918;2023-02-28T11:37:17;5.70;92.90
8114;DHT22;4099;52.684;9.918;2023-02-28T11:42:33;5.90;93.00
8114;DHT22;4099;52.684;9.918;2023-02-28T11:47:44;6.40;94.00
8114;DHT22;4099;52.684;9.918;2023-02-28T11:52:53;6.30;92.30
8114;DHT22;4099;52.684;9.918;2023-02-28T11:58:16;6.60;91.90
8114;DHT22;4099;52.684;9.918;2023-02-28T12:03:27;6.60;91.50
8114;DHT22;4099;52.684;9.918;2023-02-28T12:08:44;6.80;90.90
8114;DHT22;4099;52.684;9.918;2023-02-28T12:13:54;7.00;91.30
8114;DHT22;4099;52.684;9.918;2023-02-28T12:19:11;7.10;91.80
8114;DHT22;4099;52.684;9.918;2023-02-28T12:24:29;7.40;90.00
8114;DHT22;4099;52.684;9.918;2023-02-28T12:29:40;8.00;86.70
8114;DHT22;4099;52.684;9.918;2023-02-28T12:34:49;8.70;85.80
8114;DHT22;4099;52.684;9.918;2023-02-28T12:39:54;8.60;87.10
8114;DHT22;4099;52.684;9.918;2023-02-28T12:45:00;9.50;88.90
8114;DHT22;4099;52.684;9.918;2023-02-28T12:50:08;10.10;82.60
8114;DHT22;4099;52.684;9.918;2023-02-28T12:55:17;10.30;78.90
8114;DHT22;4099;52.684;9.918;2023-02-28T13:00:24;10.60;74.60
8114;DHT22;4099;52.684;9.918;2023-02-28T13:05:46;10.90;71.20
8114;DHT22;4099;52.684;9.918;2023-02-28T13:10:53;12.10;72.50
8114;DHT22;4099;52.684;9.918;2023-02-28T13:16:01;14.00;75.50
8114;DHT22;4099;52.684;9.918;2023-02-28T13:21:07;14.70;70.70
8114;DHT22;4099;52.684;9.918;2023-02-28T13:26:09;14.00;69.90
8114;DHT22;4099;52.684;9.918;2023-02-28T13:31:13;13.10;66.20
8114;DHT22;4099;52.684;9.918;2023-02-28T13:36:28;13.40;66.50
8114;DHT22;4099;52.684;9.918;2023-02-28T13:41:48;13.70;67.60
8114;DHT22;4099;52.684;9.918;2023-02-28T13:47:25;14.30;62.90
8114;DHT22;4099;52.684;9.918;2023-02-28T13:52:30;14.10;60.70
8114;DHT22;4099;52.684;9.918;2023-02-28T13:57:43;14.60;59.90
8114;DHT22;4099;52.684;9.918;2023-02-28T14:03:07;15.50;58.40
8114;DHT22;4099;52.684;9.918;2023-02-28T14:08:17;16.30;56.90
8114;DHT22;4099;52.684;9.918;2023-02-28T14:13:39;17.40;55.20
8114;DHT22;4099;52.684;9.918;2023-02-28T14:18:49;17.90;53.50
8114;DHT22;4099;52.684;9.918;2023-02-28T14:24:23;18.70;51.70
8114;DHT22;4099;52.684;9.918;2023-02-28T14:29:41;18.30;49.50
8114;DHT22;4099;52.684;9.918;2023-02-28T14:34:52;19.50;52.10
8114;DHT22;4099;52.684;9.918;2023-02-28T14:39:57;20.10;41.80
8114;DHT22;4099;52.684;9.918;2023-02-28T14:45:00;19.40;47.90
8114;DHT22;4099;52.684;9.918;2023-02-28T14:50:04;18.80;41.20
8114;DHT22;4099;52.684;9.918;2023-02-28T14:55:14;16.30;44.40
8114;DHT22;4099;52.684;9.918;2023-02-28T15:00:23;14.80;44.70
8114;DHT22;4099;52.684;9.918;2023-02-28T15:05:28;13.20;44.40
8114;DHT22;4099;52.684;9.918;2023-02-28T15:10:33;12.30;45.90
8114;DHT22;4099;52.684;9.918;2023-02-28T15:15:42;11.70;45.90
8114;DHT22;4099;52.684;9.918;2023-02-28T15:20:45;12.30;46.20
8114;DHT22;4099;52.684;9.918;2023-02-28T15:25:49;12.00;45.30
8114;DHT22;4099;52.684;9.918;2023-02-28T15:30:56;11.60;47.50
8114;DHT22;4099;52.684;9.918;2023-02-28T15:36:10;12.90;47.00
8114;DHT22;4099;52.684;9.918;2023-02-28T15:41:25;15.20;47.50
8114;DHT22;4099;52.684;9.918;2023-02-28T15:46:27;15.00;44.00
8114;DHT22;4099;52.684;9.918;2023-02-28T15:51:33;15.20;45.00
8114;DHT22;4099;52.684;9.918;2023-02-28T15:56:43;15.10;43.40
8114;DHT22;4099;52.684;9.918;2023-02-28T16:01:46;15.10;43.40
8114;DHT22;4099;52.684;9.918;2023-02-28T16:07:01;14.20;43.10
8114;DHT22;4099;52.684;9.918;2023-02-28T16:12:05;14.20;43.10
8114;DHT22;4099;52.684;9.918;2023-02-28T16:17:15;13.10;43.10
8114;DHT22;4099;52.684;9.918;2023-02-28T16:22:18;11.20;44.70
8114;DHT22;4099;52.684;9.918;2023-02-28T16:27:27;8.90;48.70
8114;DHT22;4099;52.684;9.918;2023-02-28T16:32:32;8.10;51.20
8114;DHT22;4099;52.684;9.918;2023-02-28T16:37:36;7.00;54.10
8114;DHT22;4099;52.684;9.918;2023-02-28T16:42:40;6.10;56.10
8114;DHT22;4099;52.684;9.918;2023-02-28T16:47:42;5.30;59.90
8114;DHT22;4099;52.684;9.918;2023-02-28T16:52:44;4.80;62.90
8114;DHT22;4099;52.684;9.918;2023-02-28T16:57:51;4.10;65.90
8114;DHT22;4099;52.684;9.918;2023-02-28T17:02:53;3.40;71.30
8114;DHT22;4099;52.684;9.918;2023-02-28T17:07:55;2.90;83.70
8114;DHT22;4099;52.684;9.918;2023-02-28T17:12:58;2.60;92.40
8114;DHT22;4099;52.684;9.918;2023-02-28T17:18:01;2.40;95.40
8114;DHT22;4099;52.684;9.918;2023-02-28T17:23:03;2.30;97.90
8114;DHT22;4099;52.684;9.918;2023-02-28T17:28:08;2.10;99.90
8114;DHT22;4099;52.684;9.918;2023-02-28T17:33:10;1.90;99.90
8114;DHT22;4099;52.684;9.918;2023-02-28T17:38:16;2.00;99.90
8114;DHT22;4099;52.684;9.918;2023-02-28T17:43:19;1.80;99.90
8114;DHT22;4099;52.684;9.918;2023-02-28T17:48:21;1.30;99.90
8114;DHT22;4099;52.684;9.918;2023-02-28T17:53:23;1.10;99.90
8114;DHT22;4099;52.684;9.918;2023-02-28T17:58:28;0.80;99.90
8114;DHT22;4099;52.684;9.918;2023-02-28T18:03:31;0.40;99.90
8114;DHT22;4099;52.684;9.918;2023-02-28T18:08:34;0.00;99.90
8114;DHT22;4099;52.684;9.918;2023-02-28T18:13:38;-0.20;99.90
8114;DHT22;4099;52.684;9.918;2023-02-28T18:18:41;-0.50;99.90
8114;DHT22;4099;52.684;9.918;2023-02-28T18:23:43;-0.60;99.90
8114;DHT22;4099;52.684;9.918;2023-02-28T18:28:49;-0.60;99.90
8114;DHT22;4099;52.684;9.918;2023-02-28T18:33:52;-0.50;99.90
8114;DHT22;4099;52.684;9.918;2023-02-28T18:38:53;-0.60;99.90
8114;DHT22;4099;52.684;9.918;2023-02-28T18:43:59;-0.50;99.90
8114;DHT22;4099;52.684;9.918;2023-02-28T18:49:02;-0.30;99.90
8114;DHT22;4099;52.684;9.918;2023-02-28T18:54:03;-0.70;99.90
8114;DHT22;4099;52.684;9.918;2023-02-28T18:59:07;-0.90;99.90
8114;DHT22;4099;52.684;9.918;2023-02-28T19:04:11;-0.80;99.90
8114;DHT22;4099;52.684;9.918;2023-02-28T19:09:13;-1.10;99.90
8114;DHT22;4099;52.684;9.918;2023-02-28T19:14:16;-1.10;99.90
8114;DHT22;4099;52.684;9.918;2023-02-28T19:19:18;-0.70;99.90
8114;DHT22;4099;52.684;9.918;2023-02-28T19:24:21;-1.00;99.90
8114;DHT22;4099;52.684;9.918;2023-02-28T19:29:24;-1.40;99.90
8114;DHT22;4099;52.684;9.918;2023-02-28T19:34:26;-1.60;99.90
8114;DHT22;4099;52.684;9.918;2023-02-28T19:39:28;-1.80;99.90
8114;DHT22;4099;52.684;9.918;2023-02-28T19:44:42;-1.90;99.90
8114;DHT22;4099;52.684;9.918;2023-02-28T19:49:45;-1.70;99.90
8114;DHT22;4099;52.684;9.918;2023-02-28T19:54:47;-1.80;99.90
8114;DHT22;4099;52.684;9.918;2023-02-28T19:59:50;-1.80;99.90
8114;DHT22;4099;52.684;9.918;2023-02-28T20:04:52;-1.80;99.90
8114;DHT22;4099;52.684;9.918;2023-02-28T20:09:56;-2.20;99.90
8114;DHT22;4099;52.684;9.918;2023-02-28T20:14:59;-2.20;99.90
8114;DHT22;4099;52.684;9.918;2023-02-28T20:20:01;-2.40;99.90
8114;DHT22;4099;52.684;9.918;2023-02-28T20:25:04;-2.50;99.90
8114;DHT22;4099;52.684;9.918;2023-02-28T20:30:10;-2.20;99.90
8114;DHT22;4099;52.684;9.918;2023-02-28T20:35:13;-2.20;99.90
8114;DHT22;4099;52.684;9.918;2023-02-28T20:40:15;-2.60;99.90
8114;DHT22;4099;52.684;9.918;2023-02-28T20:45:18;-2.70;99.90
8114;DHT22;4099;52.684;9.918;2023-02-28T20:50:21;-2.60;99.90
8114;DHT22;4099;52.684;9.918;2023-02-28T20:55:23;-2.30;99.90
8114;DHT22;4099;52.684;9.918;2023-02-28T21:00:26;-2.70;99.90
8114;DHT22;4099;52.684;9.918;2023-02-28T21:05:28;-3.00;99.90
8114;DHT22;4099;52.684;9.918;2023-02-28T21:10:31;-3.10;99.90
8114;DHT22;4099;52.684;9.918;2023-02-28T21:15:37;-3.10;99.90
8114;DHT22;4099;52.684;9.918;2023-02-28T21:20:39;-3.20;99.90
8114;DHT22;4099;52.684;9.918;2023-02-28T21:25:41;-3.30;99.90
8114;DHT22;4099;52.684;9.918;2023-02-28T21:30:45;-3.40;99.90
8114;DHT22;4099;52.684;9.918;2023-02-28T21:35:47;-3.50;99.90
8114;DHT22;4099;52.684;9.918;2023-02-28T21:40:49;-3.50;99.90
8114;DHT22;4099;52.684;9.918;2023-02-28T21:45:52;-3.60;99.90
8114;DHT22;4099;52.684;9.918;2023-02-28T21:50:55;-3.80;99.90
8114;DHT22;4099;52.684;9.918;2023-02-28T21:55:59;-3.90;99.90
8114;DHT22;4099;52.684;9.918;2023-02-28T22:01:07;-3.80;99.90
8114;DHT22;4099;52.684;9.918;2023-02-28T22:06:12;-4.00;99.90
8114;DHT22;4099;52.684;9.918;2023-02-28T22:11:16;-3.90;99.90
8114;DHT22;4099;52.684;9.918;2023-02-28T22:16:19;-3.70;99.90
8114;DHT22;4099;52.684;9.918;2023-02-28T22:21:22;-3.80;99.90
8114;DHT22;4099;52.684;9.918;2023-02-28T22:26:25;-4.00;99.90
8114;DHT22;4099;52.684;9.918;2023-02-28T22:31:29;-4.00;99.90
8114;DHT22;4099;52.684;9.918;2023-02-28T22:36:32;-4.20;99.90
8114;DHT22;4099;52.684;9.918;2023-02-28T22:41:34;-4.20;99.90
8114;DHT22;4099;52.684;9.918;2023-02-28T22:46:37;-4.20;99.90
8114;DHT22;4099;52.684;9.918;2023-02-28T22:51:39;-4.30;99.90
8114;DHT22;4099;52.684;9.918;2023-02-28T22:56:41;-4.40;99.90
8114;DHT22;4099;52.684;9.918;2023-02-28T23:01:44;-4.30;99.90
8114;DHT22;4099;52.684;9.918;2023-02-28T23:06:46;-4.40;99.90
8114;DHT22;4099;52.684;9.918;2023-02-28T23:11:49;-4.50;99.90
8114;DHT22;4099;52.684;9.918;2023-02-28T23:16:53;-4.70;99.90
8114;DHT22;4099;52.684;9.918;2023-02-28T23:21:55;-4.60;99.90
8114;DHT22;4099;52.684;9.918;2023-02-28T23:26:58;-4.20;99.90
8114;DHT22;4099;52.684;9.918;2023-02-28T23:32:02;-4.40;99.90
8114;DHT22;4099;52.684;9.918;2023-02-28T23:37:05;-4.60;99.90
8114;DHT22;4099;52.684;9.918;2023-02-28T23:42:06;-4.80;99.90
8114;DHT22;4099;52.684;9.918;2023-02-28T23:47:09;-4.80;99.90
8114;DHT22;4099;52.684;9.918;2023-02-28T23:52:13;-4.90;99.90
8114;DHT22;4099;52.684;9.918;2023-02-28T23:57:15;-4.90;99.90
